sensor_id;sensor_type;location;lat;lon;timestamp;P1;durP1;ratioP1;P2;durP2;ratioP2
66143;SDS011;52947;50.842;6.084;2023-03-14T00:02:52;4.80;;;1.70;;
66143;SDS011;52947;50.842;6.084;2023-03-14T00:05:20;5.15;;;1.55;;
66143;SDS011;52947;50.842;6.084;2023-03-14T00:07:48;8.70;;;1.67;;
66143;SDS011;52947;50.842;6.084;2023-03-14T00:10:16;2.40;;;0.80;;
66143;SDS011;52947;50.842;6.084;2023-03-14T00:12:45;2.65;;;0.73;;
66143;SDS011;52947;50.842;6.084;2023-03-14T00:15:14;2.60;;;0.98;;
66143;SDS011;52947;50.842;6.084;2023-03-14T00:17:42;1.92;;;0.80;;
66143;SDS011;52947;50.842;6.084;2023-03-14T00:20:11;1.40;;;0.88;;
66143;SDS011;52947;50.842;6.084;2023-03-14T00:22:40;4.23;;;0.90;;
66143;SDS011;52947;50.842;6.084;2023-03-14T00:25:09;6.22;;;1.20;;
66143;SDS011;52947;50.842;6.084;2023-03-14T00:27:38;3.08;;;0.93;;
66143;SDS011;52947;50.842;6.084;2023-03-14T00:30:06;6.57;;;0.85;;
66143;SDS011;52947;50.842;6.084;2023-03-14T00:32:38;4.55;;;0.93;;
66143;SDS011;52947;50.842;6.084;2023-03-14T00:35:08;4.50;;;1.10;;
66143;SDS011;52947;50.842;6.084;2023-03-14T00:37:36;5.68;;;1.30;;
66143;SDS011;52947;50.842;6.084;2023-03-14T00:40:05;9.75;;;1.45;;
66143;SDS011;52947;50.842;6.084;2023-03-14T00:42:34;7.60;;;1.60;;
66143;SDS011;52947;50.842;6.084;2023-03-14T00:45:02;12.27;;;1.92;;
66143;SDS011;52947;50.842;6.084;2023-03-14T00:47:32;6.03;;;1.70;;
66143;SDS011;52947;50.842;6.084;2023-03-14T00:50:02;6.38;;;1.75;;
66143;SDS011;52947;50.842;6.084;2023-03-14T00:52:30;7.00;;;1.25;;
66143;SDS011;52947;50.842;6.084;2023-03-14T00:54:58;3.88;;;1.20;;
66143;SDS011;52947;50.842;6.084;2023-03-14T00:57:26;5.65;;;1.15;;
66143;SDS011;52947;50.842;6.084;2023-03-14T00:59:53;5.13;;;1.27;;
66143;SDS011;52947;50.842;6.084;2023-03-14T01:02:21;3.20;;;0.80;;
66143;SDS011;52947;50.842;6.084;2023-03-14T01:04:49;6.45;;;1.02;;
66143;SDS011;52947;50.842;6.084;2023-03-14T01:07:18;4.80;;;1.45;;
66143;SDS011;52947;50.842;6.084;2023-03-14T01:09:46;5.25;;;1.23;;
66143;SDS011;52947;50.842;6.084;2023-03-14T01:12:14;5.47;;;1.08;;
66143;SDS011;52947;50.842;6.084;2023-03-14T01:14:42;8.52;;;1.23;;
66143;SDS011;52947;50.842;6.084;2023-03-14T01:17:10;3.15;;;1.20;;
66143;SDS011;52947;50.842;6.084;2023-03-14T01:19:38;4.00;;;1.67;;
66143;SDS011;52947;50.842;6.084;2023-03-14T01:22:06;3.42;;;0.75;;
66143;SDS011;52947;50.842;6.084;2023-03-14T01:24:35;5.47;;;1.50;;
66143;SDS011;52947;50.842;6.084;2023-03-14T01:27:04;3.55;;;0.75;;
66143;SDS011;52947;50.842;6.084;2023-03-14T01:29:32;4.32;;;1.10;;
66143;SDS011;52947;50.842;6.084;2023-03-14T01:32:00;8.77;;;1.70;;
66143;SDS011;52947;50.842;6.084;2023-03-14T01:34:28;5.38;;;1.63;;
66143;SDS011;52947;50.842;6.084;2023-03-14T01:36:56;6.32;;;1.00;;
66143;SDS011;52947;50.842;6.084;2023-03-14T01:39:24;3.28;;;1.00;;
66143;SDS011;52947;50.842;6.084;2023-03-14T01:41:53;5.53;;;1.27;;
66143;SDS011;52947;50.842;6.084;2023-03-14T01:44:21;4.03;;;1.33;;
66143;SDS011;52947;50.842;6.084;2023-03-14T01:46:49;3.78;;;1.08;;
66143;SDS011;52947;50.842;6.084;2023-03-14T01:49:21;5.50;;;1.42;;
66143;SDS011;52947;50.842;6.084;2023-03-14T01:51:59;8.02;;;1.33;;
66143;SDS011;52947;50.842;6.084;2023-03-14T01:54:30;3.45;;;1.00;;
66143;SDS011;52947;50.842;6.084;2023-03-14T01:57:03;9.25;;;1.77;;
66143;SDS011;52947;50.842;6.084;2023-03-14T01:59:34;6.80;;;1.42;;
66143;SDS011;52947;50.842;6.084;2023-03-14T02:02:04;5.18;;;1.35;;
66143;SDS011;52947;50.842;6.084;2023-03-14T02:04:35;6.70;;;1.23;;
66143;SDS011;52947;50.842;6.084;2023-03-14T02:07:05;5.43;;;1.58;;
66143;SDS011;52947;50.842;6.084;2023-03-14T02:09:44;5.32;;;1.25;;
66143;SDS011;52947;50.842;6.084;2023-03-14T02:12:21;6.95;;;1.38;;
66143;SDS011;52947;50.842;6.084;2023-03-14T02:15:08;3.13;;;1.23;;
66143;SDS011;52947;50.842;6.084;2023-03-14T02:17:49;5.20;;;1.58;;
66143;SDS011;52947;50.842;6.084;2023-03-14T02:20:30;9.23;;;2.53;;
66143;SDS011;52947;50.842;6.084;2023-03-14T02:23:02;6.78;;;1.50;;
66143;SDS011;52947;50.842;6.084;2023-03-14T02:25:33;9.20;;;1.43;;
66143;SDS011;52947;50.842;6.084;2023-03-14T02:28:09;6.40;;;1.92;;
66143;SDS011;52947;50.842;6.084;2023-03-14T02:30:38;7.22;;;1.80;;
66143;SDS011;52947;50.842;6.084;2023-03-14T02:33:07;3.17;;;1.35;;
66143;SDS011;52947;50.842;6.084;2023-03-14T02:35:37;8.85;;;2.45;;
66143;SDS011;52947;50.842;6.084;2023-03-14T02:38:10;7.43;;;1.50;;
66143;SDS011;52947;50.842;6.084;2023-03-14T02:40:45;5.47;;;1.85;;
66143;SDS011;52947;50.842;6.084;2023-03-14T02:43:14;5.65;;;1.52;;
66143;SDS011;52947;50.842;6.084;2023-03-14T02:45:48;6.32;;;1.35;;
66143;SDS011;52947;50.842;6.084;2023-03-14T02:48:21;12.20;;;1.30;;
66143;SDS011;52947;50.842;6.084;2023-03-14T02:50:52;7.60;;;2.30;;
66143;SDS011;52947;50.842;6.084;2023-03-14T02:53:23;6.55;;;1.55;;
66143;SDS011;52947;50.842;6.084;2023-03-14T02:55:56;6.03;;;1.63;;
66143;SDS011;52947;50.842;6.084;2023-03-14T02:58:28;7.53;;;1.67;;
66143;SDS011;52947;50.842;6.084;2023-03-14T03:01:04;8.38;;;1.40;;
66143;SDS011;52947;50.842;6.084;2023-03-14T03:03:33;9.38;;;1.73;;
66143;SDS011;52947;50.842;6.084;2023-03-14T03:06:01;6.93;;;1.30;;
66143;SDS011;52947;50.842;6.084;2023-03-14T03:08:29;4.78;;;1.15;;
66143;SDS011;52947;50.842;6.084;2023-03-14T03:10:58;13.45;;;2.20;;
66143;SDS011;52947;50.842;6.084;2023-03-14T03:13:30;14.68;;;1.92;;
66143;SDS011;52947;50.842;6.084;2023-03-14T03:16:00;3.13;;;1.38;;
66143;SDS011;52947;50.842;6.084;2023-03-14T03:18:28;5.22;;;1.38;;
66143;SDS011;52947;50.842;6.084;2023-03-14T03:20:59;7.82;;;1.45;;
66143;SDS011;52947;50.842;6.084;2023-03-14T03:23:28;4.57;;;1.40;;
66143;SDS011;52947;50.842;6.084;2023-03-14T03:25:56;8.02;;;1.38;;
66143;SDS011;52947;50.842;6.084;2023-03-14T03:28:24;4.35;;;1.40;;
66143;SDS011;52947;50.842;6.084;2023-03-14T03:30:55;2.17;;;0.85;;
66143;SDS011;52947;50.842;6.084;2023-03-14T03:33:23;5.43;;;1.17;;
66143;SDS011;52947;50.842;6.084;2023-03-14T03:35:51;3.88;;;1.38;;
66143;SDS011;52947;50.842;6.084;2023-03-14T03:38:28;1.20;;;0.73;;
66143;SDS011;52947;50.842;6.084;2023-03-14T03:40:58;4.70;;;0.85;;
66143;SDS011;52947;50.842;6.084;2023-03-14T03:43:27;4.60;;;1.00;;
66143;SDS011;52947;50.842;6.084;2023-03-14T03:45:57;1.95;;;0.75;;
66143;SDS011;52947;50.842;6.084;2023-03-14T03:50:53;1.63;;;0.80;;
66143;SDS011;52947;50.842;6.084;2023-03-14T03:53:22;1.35;;;0.70;;
66143;SDS011;52947;50.842;6.084;2023-03-14T03:56:02;1.73;;;0.60;;
66143;SDS011;52947;50.842;6.084;2023-03-14T03:58:30;1.65;;;0.60;;
66143;SDS011;52947;50.842;6.084;2023-03-14T04:00:59;4.00;;;0.55;;
66143;SDS011;52947;50.842;6.084;2023-03-14T04:03:28;0.52;;;0.45;;
66143;SDS011;52947;50.842;6.084;2023-03-14T04:05:59;2.75;;;0.60;;
66143;SDS011;52947;50.842;6.084;2023-03-14T04:08:28;1.63;;;0.68;;
66143;SDS011;52947;50.842;6.084;2023-03-14T04:10:57;0.70;;;0.70;;
66143;SDS011;52947;50.842;6.084;2023-03-14T04:14:04;2.05;;;0.80;;
66143;SDS011;52947;50.842;6.084;2023-03-14T04:16:34;0.68;;;0.57;;
66143;SDS011;52947;50.842;6.084;2023-03-14T04:19:09;0.95;;;0.70;;
66143;SDS011;52947;50.842;6.084;2023-03-14T04:21:37;0.40;;;0.40;;
66143;SDS011;52947;50.842;6.084;2023-03-14T04:24:09;3.00;;;0.50;;
66143;SDS011;52947;50.842;6.084;2023-03-14T04:26:37;0.95;;;0.35;;
66143;SDS011;52947;50.842;6.084;2023-03-14T04:29:07;0.75;;;0.38;;
66143;SDS011;52947;50.842;6.084;2023-03-14T04:31:39;1.73;;;0.38;;
66143;SDS011;52947;50.842;6.084;2023-03-14T04:34:07;1.48;;;0.52;;
66143;SDS011;52947;50.842;6.084;2023-03-14T04:36:41;2.13;;;0.60;;
66143;SDS011;52947;50.842;6.084;2023-03-14T04:39:14;0.98;;;0.60;;
66143;SDS011;52947;50.842;6.084;2023-03-14T04:41:51;0.68;;;0.20;;
66143;SDS011;52947;50.842;6.084;2023-03-14T04:44:19;0.47;;;0.47;;
66143;SDS011;52947;50.842;6.084;2023-03-14T04:46:51;3.20;;;0.50;;
66143;SDS011;52947;50.842;6.084;2023-03-14T04:49:19;0.63;;;0.40;;
66143;SDS011;52947;50.842;6.084;2023-03-14T04:51:48;0.40;;;0.40;;
66143;SDS011;52947;50.842;6.084;2023-03-14T04:54:17;0.30;;;0.30;;
66143;SDS011;52947;50.842;6.084;2023-03-14T04:56:49;0.20;;;0.20;;
66143;SDS011;52947;50.842;6.084;2023-03-14T04:59:16;1.00;;;0.40;;
66143;SDS011;52947;50.842;6.084;2023-03-14T05:01:45;0.30;;;0.30;;
66143;SDS011;52947;50.842;6.084;2023-03-14T05:04:54;0.28;;;0.28;;
66143;SDS011;52947;50.842;6.084;2023-03-14T05:07:41;0.20;;;0.20;;
66143;SDS011;52947;50.842;6.084;2023-03-14T05:10:35;0.20;;;0.20;;
66143;SDS011;52947;50.842;6.084;2023-03-14T05:13:21;0.35;;;0.35;;
66143;SDS011;52947;50.842;6.084;2023-03-14T05:16:09;0.25;;;0.25;;
66143;SDS011;52947;50.842;6.084;2023-03-14T05:18:48;0.75;;;0.40;;
66143;SDS011;52947;50.842;6.084;2023-03-14T05:21:38;0.93;;;0.40;;
66143;SDS011;52947;50.842;6.084;2023-03-14T05:24:24;0.30;;;0.30;;
66143;SDS011;52947;50.842;6.084;2023-03-14T05:27:10;0.50;;;0.38;;
66143;SDS011;52947;50.842;6.084;2023-03-14T05:29:58;0.20;;;0.20;;
66143;SDS011;52947;50.842;6.084;2023-03-14T05:32:42;0.50;;;0.30;;
66143;SDS011;52947;50.842;6.084;2023-03-14T05:35:31;0.30;;;0.30;;
66143;SDS011;52947;50.842;6.084;2023-03-14T05:38:12;0.30;;;0.30;;
66143;SDS011;52947;50.842;6.084;2023-03-14T05:41:02;0.20;;;0.20;;
66143;SDS011;52947;50.842;6.084;2023-03-14T05:43:37;0.45;;;0.30;;
66143;SDS011;52947;50.842;6.084;2023-03-14T05:46:23;0.30;;;0.30;;
66143;SDS011;52947;50.842;6.084;2023-03-14T05:49:02;0.30;;;0.30;;
66143;SDS011;52947;50.842;6.084;2023-03-14T05:51:56;0.98;;;0.40;;
66143;SDS011;52947;50.842;6.084;2023-03-14T05:57:33;0.40;;;0.40;;
66143;SDS011;52947;50.842;6.084;2023-03-14T06:00:15;0.40;;;0.40;;
66143;SDS011;52947;50.842;6.084;2023-03-14T06:03:04;0.30;;;0.30;;
66143;SDS011;52947;50.842;6.084;2023-03-14T06:05:36;0.40;;;0.40;;
66143;SDS011;52947;50.842;6.084;2023-03-14T06:08:05;1.13;;;0.43;;
66143;SDS011;52947;50.842;6.084;2023-03-14T06:10:35;0.98;;;0.63;;
66143;SDS011;52947;50.842;6.084;2023-03-14T06:13:03;0.43;;;0.43;;
66143;SDS011;52947;50.842;6.084;2023-03-14T06:15:33;0.40;;;0.40;;
66143;SDS011;52947;50.842;6.084;2023-03-14T06:18:03;0.32;;;0.32;;
66143;SDS011;52947;50.842;6.084;2023-03-14T06:20:32;0.95;;;0.45;;
66143;SDS011;52947;50.842;6.084;2023-03-14T06:23:01;0.95;;;0.40;;
66143;SDS011;52947;50.842;6.084;2023-03-14T06:25:31;0.50;;;0.50;;
66143;SDS011;52947;50.842;6.084;2023-03-14T06:28:00;3.10;;;0.65;;
66143;SDS011;52947;50.842;6.084;2023-03-14T06:30:29;1.27;;;0.50;;
66143;SDS011;52947;50.842;6.084;2023-03-14T06:32:57;1.65;;;0.70;;
66143;SDS011;52947;50.842;6.084;2023-03-14T06:35:26;0.40;;;0.40;;
66143;SDS011;52947;50.842;6.084;2023-03-14T06:37:54;0.40;;;0.40;;
66143;SDS011;52947;50.842;6.084;2023-03-14T06:40:22;0.50;;;0.50;;
66143;SDS011;52947;50.842;6.084;2023-03-14T06:42:58;1.33;;;0.40;;
66143;SDS011;52947;50.842;6.084;2023-03-14T06:45:30;0.95;;;0.55;;
66143;SDS011;52947;50.842;6.084;2023-03-14T06:48:00;0.40;;;0.40;;
66143;SDS011;52947;50.842;6.084;2023-03-14T06:50:36;3.75;;;1.20;;
66143;SDS011;52947;50.842;6.084;2023-03-14T06:53:04;0.98;;;0.80;;
66143;SDS011;52947;50.842;6.084;2023-03-14T06:55:35;0.80;;;0.70;;
66143;SDS011;52947;50.842;6.084;2023-03-14T06:58:04;1.10;;;0.70;;
66143;SDS011;52947;50.842;6.084;2023-03-14T07:00:40;0.50;;;0.50;;
66143;SDS011;52947;50.842;6.084;2023-03-14T07:03:11;0.70;;;0.60;;
66143;SDS011;52947;50.842;6.084;2023-03-14T07:05:44;0.50;;;0.50;;
66143;SDS011;52947;50.842;6.084;2023-03-14T07:08:12;0.60;;;0.60;;
66143;SDS011;52947;50.842;6.084;2023-03-14T07:10:39;0.50;;;0.50;;
66143;SDS011;52947;50.842;6.084;2023-03-14T07:13:08;0.77;;;0.68;;
66143;SDS011;52947;50.842;6.084;2023-03-14T07:15:53;0.68;;;0.68;;
66143;SDS011;52947;50.842;6.084;2023-03-14T07:18:22;0.50;;;0.50;;
66143;SDS011;52947;50.842;6.084;2023-03-14T07:20:51;0.73;;;0.60;;
66143;SDS011;52947;50.842;6.084;2023-03-14T07:23:19;0.50;;;0.50;;
66143;SDS011;52947;50.842;6.084;2023-03-14T07:25:49;0.50;;;0.50;;
66143;SDS011;52947;50.842;6.084;2023-03-14T07:28:19;0.40;;;0.40;;
66143;SDS011;52947;50.842;6.084;2023-03-14T07:30:50;1.42;;;0.60;;
66143;SDS011;52947;50.842;6.084;2023-03-14T07:33:25;0.50;;;0.50;;
66143;SDS011;52947;50.842;6.084;2023-03-14T07:38:22;0.87;;;0.50;;
66143;SDS011;52947;50.842;6.084;2023-03-14T07:41:12;5.35;;;0.60;;
66143;SDS011;52947;50.842;6.084;2023-03-14T07:43:51;0.40;;;0.40;;
66143;SDS011;52947;50.842;6.084;2023-03-14T07:46:20;0.82;;;0.60;;
66143;SDS011;52947;50.842;6.084;2023-03-14T07:48:49;0.50;;;0.50;;
66143;SDS011;52947;50.842;6.084;2023-03-14T07:51:17;1.10;;;0.63;;
66143;SDS011;52947;50.842;6.084;2023-03-14T07:53:45;1.25;;;0.60;;
66143;SDS011;52947;50.842;6.084;2023-03-14T07:56:13;0.45;;;0.40;;
66143;SDS011;52947;50.842;6.084;2023-03-14T07:58:41;0.90;;;0.60;;
66143;SDS011;52947;50.842;6.084;2023-03-14T08:01:09;1.23;;;0.57;;
66143;SDS011;52947;50.842;6.084;2023-03-14T08:03:37;0.55;;;0.43;;
66143;SDS011;52947;50.842;6.084;2023-03-14T08:06:06;1.92;;;0.80;;
66143;SDS011;52947;50.842;6.084;2023-03-14T08:08:34;2.03;;;0.73;;
66143;SDS011;52947;50.842;6.084;2023-03-14T08:11:03;3.05;;;0.70;;
66143;SDS011;52947;50.842;6.084;2023-03-14T08:13:31;2.70;;;1.00;;
66143;SDS011;52947;50.842;6.084;2023-03-14T08:15:59;3.83;;;0.85;;
66143;SDS011;52947;50.842;6.084;2023-03-14T08:18:27;1.35;;;0.80;;
66143;SDS011;52947;50.842;6.084;2023-03-14T08:20:55;1.13;;;1.00;;
66143;SDS011;52947;50.842;6.084;2023-03-14T08:23:25;1.02;;;0.93;;
66143;SDS011;52947;50.842;6.084;2023-03-14T08:25:53;3.20;;;1.02;;
66143;SDS011;52947;50.842;6.084;2023-03-14T08:28:21;0.95;;;0.60;;
66143;SDS011;52947;50.842;6.084;2023-03-14T08:30:49;0.88;;;0.75;;
66143;SDS011;52947;50.842;6.084;2023-03-14T08:33:17;0.93;;;0.60;;
66143;SDS011;52947;50.842;6.084;2023-03-14T08:35:45;0.85;;;0.80;;
66143;SDS011;52947;50.842;6.084;2023-03-14T08:38:13;1.08;;;0.63;;
66143;SDS011;52947;50.842;6.084;2023-03-14T08:40:43;1.20;;;0.70;;
66143;SDS011;52947;50.842;6.084;2023-03-14T08:43:11;2.70;;;0.70;;
66143;SDS011;52947;50.842;6.084;2023-03-14T08:45:38;2.17;;;1.00;;
66143;SDS011;52947;50.842;6.084;2023-03-14T08:48:06;1.13;;;0.70;;
66143;SDS011;52947;50.842;6.084;2023-03-14T08:50:34;0.60;;;0.52;;
66143;SDS011;52947;50.842;6.084;2023-03-14T08:53:02;2.03;;;0.60;;
66143;SDS011;52947;50.842;6.084;2023-03-14T08:55:30;1.73;;;0.50;;
66143;SDS011;52947;50.842;6.084;2023-03-14T08:57:59;0.93;;;0.65;;
66143;SDS011;52947;50.842;6.084;2023-03-14T09:00:27;3.60;;;0.60;;
66143;SDS011;52947;50.842;6.084;2023-03-14T09:02:55;7.53;;;0.80;;
66143;SDS011;52947;50.842;6.084;2023-03-14T09:05:23;2.22;;;1.60;;
66143;SDS011;52947;50.842;6.084;2023-03-14T09:07:51;1.75;;;1.27;;
66143;SDS011;52947;50.842;6.084;2023-03-14T09:10:19;0.50;;;0.50;;
66143;SDS011;52947;50.842;6.084;2023-03-14T09:12:47;2.53;;;0.80;;
66143;SDS011;52947;50.842;6.084;2023-03-14T09:15:16;0.80;;;0.80;;
66143;SDS011;52947;50.842;6.084;2023-03-14T09:20:12;1.27;;;0.57;;
66143;SDS011;52947;50.842;6.084;2023-03-14T09:22:40;0.60;;;0.50;;
66143;SDS011;52947;50.842;6.084;2023-03-14T09:25:09;0.68;;;0.60;;
66143;SDS011;52947;50.842;6.084;2023-03-14T09:27:37;1.10;;;0.90;;
66143;SDS011;52947;50.842;6.084;2023-03-14T09:30:05;0.73;;;0.73;;
66143;SDS011;52947;50.842;6.084;2023-03-14T09:32:36;2.55;;;0.68;;
66143;SDS011;52947;50.842;6.084;2023-03-14T09:35:04;1.58;;;0.80;;
66143;SDS011;52947;50.842;6.084;2023-03-14T09:37:32;1.38;;;0.90;;
66143;SDS011;52947;50.842;6.084;2023-03-14T09:40:00;2.28;;;0.82;;
66143;SDS011;52947;50.842;6.084;2023-03-14T09:42:35;1.00;;;0.88;;
66143;SDS011;52947;50.842;6.084;2023-03-14T09:45:06;0.52;;;0.52;;
66143;SDS011;52947;50.842;6.084;2023-03-14T09:47:40;3.08;;;0.90;;
66143;SDS011;52947;50.842;6.084;2023-03-14T09:50:23;3.67;;;0.95;;
66143;SDS011;52947;50.842;6.084;2023-03-14T09:52:55;1.77;;;1.10;;
66143;SDS011;52947;50.842;6.084;2023-03-14T09:55:26;1.17;;;0.85;;
66143;SDS011;52947;50.842;6.084;2023-03-14T09:57:55;1.98;;;1.00;;
66143;SDS011;52947;50.842;6.084;2023-03-14T10:00:26;2.47;;;1.17;;
66143;SDS011;52947;50.842;6.084;2023-03-14T10:03:00;2.22;;;1.50;;
66143;SDS011;52947;50.842;6.084;2023-03-14T10:05:47;1.77;;;1.50;;
66143;SDS011;52947;50.842;6.084;2023-03-14T10:08:15;4.25;;;1.42;;
66143;SDS011;52947;50.842;6.084;2023-03-14T10:10:43;2.45;;;1.40;;
66143;SDS011;52947;50.842;6.084;2023-03-14T10:13:14;2.70;;;1.25;;
66143;SDS011;52947;50.842;6.084;2023-03-14T10:15:47;3.78;;;1.38;;
66143;SDS011;52947;50.842;6.084;2023-03-14T10:18:17;1.02;;;1.02;;
66143;SDS011;52947;50.842;6.084;2023-03-14T10:23:22;4.88;;;1.50;;
66143;SDS011;52947;50.842;6.084;2023-03-14T10:26:05;2.47;;;1.30;;
66143;SDS011;52947;50.842;6.084;2023-03-14T10:28:37;4.20;;;1.45;;
66143;SDS011;52947;50.842;6.084;2023-03-14T10:31:10;2.60;;;1.30;;
66143;SDS011;52947;50.842;6.084;2023-03-14T10:33:39;2.63;;;1.40;;
66143;SDS011;52947;50.842;6.084;2023-03-14T10:36:15;2.10;;;1.40;;
66143;SDS011;52947;50.842;6.084;2023-03-14T10:38:46;2.83;;;1.35;;
66143;SDS011;52947;50.842;6.084;2023-03-14T10:41:15;5.53;;;1.37;;
66143;SDS011;52947;50.842;6.084;2023-03-14T10:43:46;2.97;;;1.10;;
66143;SDS011;52947;50.842;6.084;2023-03-14T10:46:18;5.38;;;1.20;;
66143;SDS011;52947;50.842;6.084;2023-03-14T10:49:07;2.30;;;1.30;;
66143;SDS011;52947;50.842;6.084;2023-03-14T10:51:35;3.00;;;0.98;;
66143;SDS011;52947;50.842;6.084;2023-03-14T10:54:09;1.65;;;0.88;;
66143;SDS011;52947;50.842;6.084;2023-03-14T10:56:40;0.73;;;0.70;;
66143;SDS011;52947;50.842;6.084;2023-03-14T10:59:11;1.85;;;0.73;;
66143;SDS011;52947;50.842;6.084;2023-03-14T11:01:43;3.40;;;0.90;;
66143;SDS011;52947;50.842;6.084;2023-03-14T11:04:23;1.27;;;0.75;;
66143;SDS011;52947;50.842;6.084;2023-03-14T11:07:04;1.42;;;0.82;;
66143;SDS011;52947;50.842;6.084;2023-03-14T11:09:41;1.15;;;0.75;;
66143;SDS011;52947;50.842;6.084;2023-03-14T11:12:21;3.40;;;1.10;;
66143;SDS011;52947;50.842;6.084;2023-03-14T11:15:04;1.10;;;1.00;;
66143;SDS011;52947;50.842;6.084;2023-03-14T11:17:38;1.65;;;1.10;;
66143;SDS011;52947;50.842;6.084;2023-03-14T11:20:19;2.03;;;1.27;;
66143;SDS011;52947;50.842;6.084;2023-03-14T11:22:59;1.80;;;0.90;;
66143;SDS011;52947;50.842;6.084;2023-03-14T11:25:32;1.67;;;0.93;;
66143;SDS011;52947;50.842;6.084;2023-03-14T11:28:08;0.70;;;0.70;;
66143;SDS011;52947;50.842;6.084;2023-03-14T11:30:44;1.20;;;0.77;;
66143;SDS011;52947;50.842;6.084;2023-03-14T11:33:19;1.80;;;0.80;;
66143;SDS011;52947;50.842;6.084;2023-03-14T11:35:55;2.47;;;1.10;;
66143;SDS011;52947;50.842;6.084;2023-03-14T11:38:30;1.02;;;0.77;;
66143;SDS011;52947;50.842;6.084;2023-03-14T11:41:02;1.88;;;0.95;;
66143;SDS011;52947;50.842;6.084;2023-03-14T11:43:36;3.15;;;0.90;;
66143;SDS011;52947;50.842;6.084;2023-03-14T11:46:09;2.08;;;0.70;;
66143;SDS011;52947;50.842;6.084;2023-03-14T11:48:42;3.17;;;0.95;;
66143;SDS011;52947;50.842;6.084;2023-03-14T11:51:17;3.28;;;1.17;;
66143;SDS011;52947;50.842;6.084;2023-03-14T11:53:53;1.83;;;0.90;;
66143;SDS011;52947;50.842;6.084;2023-03-14T11:56:27;2.17;;;0.85;;
66143;SDS011;52947;50.842;6.084;2023-03-14T11:59:01;2.03;;;1.00;;
66143;SDS011;52947;50.842;6.084;2023-03-14T12:01:43;3.92;;;1.20;;
66143;SDS011;52947;50.842;6.084;2023-03-14T12:04:20;3.10;;;1.10;;
66143;SDS011;52947;50.842;6.084;2023-03-14T12:06:56;2.00;;;1.00;;
66143;SDS011;52947;50.842;6.084;2023-03-14T12:09:29;3.28;;;1.20;;
66143;SDS011;52947;50.842;6.084;2023-03-14T12:11:58;1.48;;;1.08;;
66143;SDS011;52947;50.842;6.084;2023-03-14T12:14:29;4.10;;;1.40;;
66143;SDS011;52947;50.842;6.084;2023-03-14T12:17:04;3.85;;;1.52;;
66143;SDS011;52947;50.842;6.084;2023-03-14T12:19:34;4.88;;;1.55;;
66143;SDS011;52947;50.842;6.084;2023-03-14T12:22:13;3.42;;;1.73;;
66143;SDS011;52947;50.842;6.084;2023-03-14T12:24:53;4.13;;;1.70;;
66143;SDS011;52947;50.842;6.084;2023-03-14T12:27:40;3.63;;;1.63;;
66143;SDS011;52947;50.842;6.084;2023-03-14T12:30:17;3.00;;;1.60;;
66143;SDS011;52947;50.842;6.084;2023-03-14T12:35:58;4.35;;;1.70;;
66143;SDS011;52947;50.842;6.084;2023-03-14T12:38:31;5.53;;;1.90;;
66143;SDS011;52947;50.842;6.084;2023-03-14T12:41:13;2.72;;;1.25;;
66143;SDS011;52947;50.842;6.084;2023-03-14T12:43:44;6.53;;;1.40;;
66143;SDS011;52947;50.842;6.084;2023-03-14T12:46:21;4.93;;;1.63;;
66143;SDS011;52947;50.842;6.084;2023-03-14T12:48:53;3.20;;;1.17;;
66143;SDS011;52947;50.842;6.084;2023-03-14T12:51:28;5.05;;;1.60;;
66143;SDS011;52947;50.842;6.084;2023-03-14T12:54:09;4.28;;;1.23;;
66143;SDS011;52947;50.842;6.084;2023-03-14T12:56:45;6.50;;;1.42;;
66143;SDS011;52947;50.842;6.084;2023-03-14T13:02:24;7.00;;;1.75;;
66143;SDS011;52947;50.842;6.084;2023-03-14T13:04:59;4.13;;;1.40;;
66143;SDS011;52947;50.842;6.084;2023-03-14T13:07:36;3.83;;;1.17;;
66143;SDS011;52947;50.842;6.084;2023-03-14T13:10:39;5.15;;;1.52;;
66143;SDS011;52947;50.842;6.084;2023-03-14T13:13:17;9.38;;;1.38;;
66143;SDS011;52947;50.842;6.084;2023-03-14T13:15:48;7.18;;;1.67;;
66143;SDS011;52947;50.842;6.084;2023-03-14T13:18:25;6.97;;;1.42;;
66143;SDS011;52947;50.842;6.084;2023-03-14T13:20:58;9.35;;;2.17;;
66143;SDS011;52947;50.842;6.084;2023-03-14T13:23:30;7.88;;;1.77;;
66143;SDS011;52947;50.842;6.084;2023-03-14T13:26:01;10.25;;;2.00;;
66143;SDS011;52947;50.842;6.084;2023-03-14T13:28:30;4.22;;;1.45;;
66143;SDS011;52947;50.842;6.084;2023-03-14T13:30:59;9.37;;;1.50;;
66143;SDS011;52947;50.842;6.084;2023-03-14T13:33:28;7.38;;;1.50;;
66143;SDS011;52947;50.842;6.084;2023-03-14T13:35:59;4.50;;;1.35;;
66143;SDS011;52947;50.842;6.084;2023-03-14T13:38:29;6.32;;;1.50;;
66143;SDS011;52947;50.842;6.084;2023-03-14T13:40:59;6.60;;;1.45;;
66143;SDS011;52947;50.842;6.084;2023-03-14T13:43:32;8.52;;;1.63;;
66143;SDS011;52947;50.842;6.084;2023-03-14T13:46:02;13.07;;;2.03;;
66143;SDS011;52947;50.842;6.084;2023-03-14T13:48:33;7.65;;;1.75;;
66143;SDS011;52947;50.842;6.084;2023-03-14T13:51:09;11.63;;;1.70;;
66143;SDS011;52947;50.842;6.084;2023-03-14T13:53:43;8.68;;;1.60;;
66143;SDS011;52947;50.842;6.084;2023-03-14T13:56:12;8.68;;;1.60;;
66143;SDS011;52947;50.842;6.084;2023-03-14T13:58:41;8.95;;;1.90;;
66143;SDS011;52947;50.842;6.084;2023-03-14T14:01:13;10.13;;;1.88;;
66143;SDS011;52947;50.842;6.084;2023-03-14T14:03:44;8.65;;;1.63;;
66143;SDS011;52947;50.842;6.084;2023-03-14T14:06:21;7.90;;;2.10;;
66143;SDS011;52947;50.842;6.084;2023-03-14T14:08:55;9.10;;;2.13;;
66143;SDS011;52947;50.842;6.084;2023-03-14T14:11:30;17.23;;;2.47;;
66143;SDS011;52947;50.842;6.084;2023-03-14T14:14:17;7.50;;;1.92;;
66143;SDS011;52947;50.842;6.084;2023-03-14T14:16:48;10.57;;;1.95;;
66143;SDS011;52947;50.842;6.084;2023-03-14T14:19:19;15.57;;;2.35;;
66143;SDS011;52947;50.842;6.084;2023-03-14T14:21:50;10.30;;;1.90;;
66143;SDS011;52947;50.842;6.084;2023-03-14T14:24:18;13.45;;;2.42;;
66143;SDS011;52947;50.842;6.084;2023-03-14T14:26:51;10.48;;;2.30;;
66143;SDS011;52947;50.842;6.084;2023-03-14T14:29:25;7.45;;;1.75;;
66143;SDS011;52947;50.842;6.084;2023-03-14T14:32:01;14.10;;;1.95;;
66143;SDS011;52947;50.842;6.084;2023-03-14T14:34:37;10.15;;;2.50;;
66143;SDS011;52947;50.842;6.084;2023-03-14T14:37:14;13.57;;;2.40;;
66143;SDS011;52947;50.842;6.084;2023-03-14T14:39:46;12.23;;;2.40;;
66143;SDS011;52947;50.842;6.084;2023-03-14T14:42:16;9.75;;;2.20;;
66143;SDS011;52947;50.842;6.084;2023-03-14T14:44:49;12.80;;;2.72;;
66143;SDS011;52947;50.842;6.084;2023-03-14T14:47:18;10.38;;;2.40;;
66143;SDS011;52947;50.842;6.084;2023-03-14T14:49:49;19.45;;;2.78;;
66143;SDS011;52947;50.842;6.084;2023-03-14T14:52:19;13.98;;;2.33;;
66143;SDS011;52947;50.842;6.084;2023-03-14T14:54:51;6.53;;;2.03;;
66143;SDS011;52947;50.842;6.084;2023-03-14T14:57:23;9.77;;;1.92;;
66143;SDS011;52947;50.842;6.084;2023-03-14T14:59:55;10.32;;;2.17;;
66143;SDS011;52947;50.842;6.084;2023-03-14T15:02:27;10.88;;;2.20;;
66143;SDS011;52947;50.842;6.084;2023-03-14T15:04:57;8.77;;;1.95;;
66143;SDS011;52947;50.842;6.084;2023-03-14T15:07:25;8.80;;;2.10;;
66143;SDS011;52947;50.842;6.084;2023-03-14T15:09:53;10.23;;;2.03;;
66143;SDS011;52947;50.842;6.084;2023-03-14T15:12:22;8.25;;;2.47;;
66143;SDS011;52947;50.842;6.084;2023-03-14T15:14:51;12.55;;;2.42;;
66143;SDS011;52947;50.842;6.084;2023-03-14T15:17:19;14.85;;;2.08;;
66143;SDS011;52947;50.842;6.084;2023-03-14T15:19:47;17.30;;;2.88;;
66143;SDS011;52947;50.842;6.084;2023-03-14T15:22:14;11.50;;;2.80;;
66143;SDS011;52947;50.842;6.084;2023-03-14T15:24:42;12.95;;;2.08;;
66143;SDS011;52947;50.842;6.084;2023-03-14T15:27:12;15.52;;;2.22;;
66143;SDS011;52947;50.842;6.084;2023-03-14T15:29:43;10.20;;;2.30;;
66143;SDS011;52947;50.842;6.084;2023-03-14T15:32:12;11.88;;;2.55;;
66143;SDS011;52947;50.842;6.084;2023-03-14T15:34:42;11.02;;;1.83;;
66143;SDS011;52947;50.842;6.084;2023-03-14T15:37:10;12.18;;;2.30;;